sensor_id;sensor_type;location;lat;lon;timestamp;P1;durP1;ratioP1;P2;durP2;ratioP2
50350;SDS011;36250;48.740;22.174;2023-02-21T00:00:50;25.88;;;16.40;;
50350;SDS011;36250;48.740;22.174;2023-02-21T00:03:34;34.47;;;21.42;;
50350;SDS011;36250;48.740;22.174;2023-02-21T00:06:18;30.27;;;18.70;;
50350;SDS011;36250;48.740;22.174;2023-02-21T00:09:02;28.92;;;18.55;;
50350;SDS011;36250;48.740;22.174;2023-02-21T00:11:46;31.15;;;19.65;;
50350;SDS011;36250;48.740;22.174;2023-02-21T00:14:30;31.13;;;20.80;;
50350;SDS011;36250;48.740;22.174;2023-02-21T00:17:14;34.97;;;21.27;;
50350;SDS011;36250;48.740;22.174;2023-02-21T00:19:58;39.28;;;23.52;;
50350;SDS011;36250;48.740;22.174;2023-02-21T00:22:43;37.35;;;23.08;;
50350;SDS011;36250;48.740;22.174;2023-02-21T00:25:27;35.67;;;22.60;;
50350;SDS011;36250;48.740;22.174;2023-02-21T00:28:11;37.47;;;24.48;;
50350;SDS011;36250;48.740;22.174;2023-02-21T00:30:55;40.05;;;24.55;;
50350;SDS011;36250;48.740;22.174;2023-02-21T00:33:39;42.33;;;25.48;;
50350;SDS011;36250;48.740;22.174;2023-02-21T00:36:23;37.05;;;23.95;;
50350;SDS011;36250;48.740;22.174;2023-02-21T00:39:07;33.05;;;20.85;;
50350;SDS011;36250;48.740;22.174;2023-02-21T00:41:51;37.42;;;22.58;;
50350;SDS011;36250;48.740;22.174;2023-02-21T00:44:35;35.63;;;23.40;;
50350;SDS011;36250;48.740;22.174;2023-02-21T00:47:19;34.33;;;22.08;;
50350;SDS011;36250;48.740;22.174;2023-02-21T00:50:03;32.22;;;21.52;;
50350;SDS011;36250;48.740;22.174;2023-02-21T00:52:47;30.23;;;19.23;;
50350;SDS011;36250;48.740;22.174;2023-02-21T00:55:31;32.22;;;19.42;;
50350;SDS011;36250;48.740;22.174;2023-02-21T00:58:15;26.65;;;18.55;;
50350;SDS011;36250;48.740;22.174;2023-02-21T01:00:59;23.33;;;16.17;;
50350;SDS011;36250;48.740;22.174;2023-02-21T01:03:43;32.17;;;19.45;;
50350;SDS011;36250;48.740;22.174;2023-02-21T01:06:27;27.42;;;17.42;;
50350;SDS011;36250;48.740;22.174;2023-02-21T01:09:11;24.05;;;16.10;;
50350;SDS011;36250;48.740;22.174;2023-02-21T01:11:54;27.15;;;16.65;;
50350;SDS011;36250;48.740;22.174;2023-02-21T01:14:38;25.67;;;17.65;;
50350;SDS011;36250;48.740;22.174;2023-02-21T01:17:22;25.25;;;16.15;;
50350;SDS011;36250;48.740;22.174;2023-02-21T01:20:06;27.20;;;16.50;;
50350;SDS011;36250;48.740;22.174;2023-02-21T01:22:50;25.38;;;15.93;;
50350;SDS011;36250;48.740;22.174;2023-02-21T01:25:34;24.50;;;16.40;;
50350;SDS011;36250;48.740;22.174;2023-02-21T01:28:18;23.77;;;16.67;;
50350;SDS011;36250;48.740;22.174;2023-02-21T01:31:02;26.58;;;16.75;;
50350;SDS011;36250;48.740;22.174;2023-02-21T01:33:47;26.52;;;16.80;;
50350;SDS011;36250;48.740;22.174;2023-02-21T01:36:30;27.85;;;17.90;;
50350;SDS011;36250;48.740;22.174;2023-02-21T01:39:15;25.30;;;16.80;;
50350;SDS011;36250;48.740;22.174;2023-02-21T01:42:00;26.40;;;16.60;;
50350;SDS011;36250;48.740;22.174;2023-02-21T01:44:45;22.50;;;16.58;;
50350;SDS011;36250;48.740;22.174;2023-02-21T01:47:31;26.48;;;17.05;;
50350;SDS011;36250;48.740;22.174;2023-02-21T01:53:22;33.00;;;19.77;;
50350;SDS011;36250;48.740;22.174;2023-02-21T01:56:08;26.85;;;18.05;;
50350;SDS011;36250;48.740;22.174;2023-02-21T01:58:55;31.23;;;19.42;;
50350;SDS011;36250;48.740;22.174;2023-02-21T02:01:46;29.38;;;18.42;;
50350;SDS011;36250;48.740;22.174;2023-02-21T02:04:35;27.17;;;17.40;;
50350;SDS011;36250;48.740;22.174;2023-02-21T02:07:19;30.92;;;18.80;;
50350;SDS011;36250;48.740;22.174;2023-02-21T02:10:04;34.40;;;19.15;;
50350;SDS011;36250;48.740;22.174;2023-02-21T02:13:06;26.45;;;18.50;;
50350;SDS011;36250;48.740;22.174;2023-02-21T02:21:49;24.50;;;16.63;;
50350;SDS011;36250;48.740;22.174;2023-02-21T02:30:15;32.28;;;16.50;;
50350;SDS011;36250;48.740;22.174;2023-02-21T02:35:40;30.17;;;19.58;;
50350;SDS011;36250;48.740;22.174;2023-02-21T02:38:22;33.05;;;20.83;;
50350;SDS011;36250;48.740;22.174;2023-02-21T02:41:10;30.65;;;21.60;;
50350;SDS011;36250;48.740;22.174;2023-02-21T02:44:10;36.47;;;22.50;;
50350;SDS011;36250;48.740;22.174;2023-02-21T02:46:42;29.90;;;19.67;;
50350;SDS011;36250;48.740;22.174;2023-02-21T02:49:15;32.38;;;19.52;;
50350;SDS011;36250;48.740;22.174;2023-02-21T02:51:43;28.98;;;19.05;;
50350;SDS011;36250;48.740;22.174;2023-02-21T02:54:09;29.35;;;18.83;;
50350;SDS011;36250;48.740;22.174;2023-02-21T02:56:35;27.98;;;19.08;;
50350;SDS011;36250;48.740;22.174;2023-02-21T02:59:10;30.02;;;17.15;;
50350;SDS011;36250;48.740;22.174;2023-02-21T03:04:31;24.08;;;16.65;;
50350;SDS011;36250;48.740;22.174;2023-02-21T03:07:06;23.83;;;18.25;;
50350;SDS011;36250;48.740;22.174;2023-02-21T03:18:18;24.48;;;16.40;;
50350;SDS011;36250;48.740;22.174;2023-02-21T03:20:44;26.00;;;15.93;;
50350;SDS011;36250;48.740;22.174;2023-02-21T03:23:14;22.13;;;13.90;;
50350;SDS011;36250;48.740;22.174;2023-02-21T03:25:43;24.13;;;16.05;;
50350;SDS011;36250;48.740;22.174;2023-02-21T03:28:10;20.85;;;15.45;;
50350;SDS011;36250;48.740;22.174;2023-02-21T03:30:37;20.65;;;14.60;;
50350;SDS011;36250;48.740;22.174;2023-02-21T03:33:05;22.10;;;15.20;;
50350;SDS011;36250;48.740;22.174;2023-02-21T03:35:30;19.75;;;13.98;;
50350;SDS011;36250;48.740;22.174;2023-02-21T03:37:56;26.73;;;15.23;;
50350;SDS011;36250;48.740;22.174;2023-02-21T03:40:23;20.70;;;14.57;;
50350;SDS011;36250;48.740;22.174;2023-02-21T03:42:52;16.60;;;13.30;;
50350;SDS011;36250;48.740;22.174;2023-02-21T03:45:18;21.25;;;13.50;;
50350;SDS011;36250;48.740;22.174;2023-02-21T03:47:44;21.40;;;14.05;;
50350;SDS011;36250;48.740;22.174;2023-02-21T03:50:09;18.75;;;13.27;;
50350;SDS011;36250;48.740;22.174;2023-02-21T03:52:35;22.00;;;13.73;;
50350;SDS011;36250;48.740;22.174;2023-02-21T03:55:01;31.88;;;19.75;;
50350;SDS011;36250;48.740;22.174;2023-02-21T03:57:27;23.83;;;15.23;;
50350;SDS011;36250;48.740;22.174;2023-02-21T03:59:52;26.88;;;17.70;;
50350;SDS011;36250;48.740;22.174;2023-02-21T04:02:18;29.77;;;19.17;;
50350;SDS011;36250;48.740;22.174;2023-02-21T04:04:44;25.35;;;16.88;;
50350;SDS011;36250;48.740;22.174;2023-02-21T04:07:12;24.98;;;16.08;;
50350;SDS011;36250;48.740;22.174;2023-02-21T04:09:37;18.48;;;12.20;;
50350;SDS011;36250;48.740;22.174;2023-02-21T04:12:03;21.38;;;13.73;;
50350;SDS011;36250;48.740;22.174;2023-02-21T04:14:29;20.08;;;14.55;;
50350;SDS011;36250;48.740;22.174;2023-02-21T04:16:55;22.90;;;15.10;;
50350;SDS011;36250;48.740;22.174;2023-02-21T04:19:20;21.20;;;16.02;;
50350;SDS011;36250;48.740;22.174;2023-02-21T04:21:45;18.80;;;13.82;;
50350;SDS011;36250;48.740;22.174;2023-02-21T04:24:11;19.55;;;14.20;;
50350;SDS011;36250;48.740;22.174;2023-02-21T04:26:36;26.40;;;17.25;;
50350;SDS011;36250;48.740;22.174;2023-02-21T04:29:03;26.88;;;16.20;;
50350;SDS011;36250;48.740;22.174;2023-02-21T04:31:29;24.52;;;14.80;;
50350;SDS011;36250;48.740;22.174;2023-02-21T04:33:56;18.52;;;13.18;;
50350;SDS011;36250;48.740;22.174;2023-02-21T04:36:22;18.23;;;14.02;;
50350;SDS011;36250;48.740;22.174;2023-02-21T04:38:47;21.70;;;15.27;;
50350;SDS011;36250;48.740;22.174;2023-02-21T04:41:14;28.85;;;16.00;;
50350;SDS011;36250;48.740;22.174;2023-02-21T04:43:41;20.77;;;15.20;;
50350;SDS011;36250;48.740;22.174;2023-02-21T04:46:07;22.65;;;14.25;;
50350;SDS011;36250;48.740;22.174;2023-02-21T04:48:32;25.20;;;17.35;;
50350;SDS011;36250;48.740;22.174;2023-02-21T04:50:57;61.22;;;34.50;;
50350;SDS011;36250;48.740;22.174;2023-02-21T04:53:23;59.15;;;34.03;;
50350;SDS011;36250;48.740;22.174;2023-02-21T04:55:48;38.95;;;24.45;;
50350;SDS011;36250;48.740;22.174;2023-02-21T04:58:13;25.63;;;17.60;;
50350;SDS011;36250;48.740;22.174;2023-02-21T05:00:39;22.10;;;14.70;;
50350;SDS011;36250;48.740;22.174;2023-02-21T05:03:04;20.48;;;13.75;;
50350;SDS011;36250;48.740;22.174;2023-02-21T05:05:29;22.67;;;14.18;;
50350;SDS011;36250;48.740;22.174;2023-02-21T05:07:55;21.58;;;13.57;;
50350;SDS011;36250;48.740;22.174;2023-02-21T05:10:20;29.38;;;19.17;;
50350;SDS011;36250;48.740;22.174;2023-02-21T05:12:45;32.67;;;22.20;;
50350;SDS011;36250;48.740;22.174;2023-02-21T05:15:11;31.67;;;19.40;;
50350;SDS011;36250;48.740;22.174;2023-02-21T05:17:37;24.33;;;16.60;;
50350;SDS011;36250;48.740;22.174;2023-02-21T05:20:03;25.83;;;16.45;;
50350;SDS011;36250;48.740;22.174;2023-02-21T05:22:29;30.02;;;18.13;;
50350;SDS011;36250;48.740;22.174;2023-02-21T05:24:54;25.95;;;18.23;;
50350;SDS011;36250;48.740;22.174;2023-02-21T05:27:20;21.77;;;16.33;;
50350;SDS011;36250;48.740;22.174;2023-02-21T05:29:47;20.70;;;15.90;;
50350;SDS011;36250;48.740;22.174;2023-02-21T05:32:16;24.00;;;15.70;;
50350;SDS011;36250;48.740;22.174;2023-02-21T05:34:43;22.63;;;15.63;;
50350;SDS011;36250;48.740;22.174;2023-02-21T05:37:10;21.35;;;15.13;;
50350;SDS011;36250;48.740;22.174;2023-02-21T05:39:36;21.67;;;14.95;;
50350;SDS011;36250;48.740;22.174;2023-02-21T05:42:01;21.10;;;14.10;;
50350;SDS011;36250;48.740;22.174;2023-02-21T05:44:27;24.05;;;15.95;;
50350;SDS011;36250;48.740;22.174;2023-02-21T05:46:52;26.58;;;17.00;;
50350;SDS011;36250;48.740;22.174;2023-02-21T05:49:18;25.17;;;18.98;;
50350;SDS011;36250;48.740;22.174;2023-02-21T05:51:43;25.65;;;18.23;;
50350;SDS011;36250;48.740;22.174;2023-02-21T05:54:12;34.20;;;21.27;;
50350;SDS011;36250;48.740;22.174;2023-02-21T05:56:40;31.25;;;20.65;;
50350;SDS011;36250;48.740;22.174;2023-02-21T05:59:06;36.60;;;24.50;;
50350;SDS011;36250;48.740;22.174;2023-02-21T06:01:32;38.47;;;26.35;;
50350;SDS011;36250;48.740;22.174;2023-02-21T06:03:58;36.05;;;22.77;;
50350;SDS011;36250;48.740;22.174;2023-02-21T06:06:23;33.65;;;22.55;;
50350;SDS011;36250;48.740;22.174;2023-02-21T06:08:49;29.15;;;20.42;;
50350;SDS011;36250;48.740;22.174;2023-02-21T06:11:20;30.10;;;21.63;;
50350;SDS011;36250;48.740;22.174;2023-02-21T06:13:51;33.53;;;23.10;;
50350;SDS011;36250;48.740;22.174;2023-02-21T06:16:17;34.53;;;23.67;;
50350;SDS011;36250;48.740;22.174;2023-02-21T06:18:43;56.13;;;38.33;;
50350;SDS011;36250;48.740;22.174;2023-02-21T06:21:08;41.60;;;27.40;;
50350;SDS011;36250;48.740;22.174;2023-02-21T06:23:33;69.38;;;41.85;;
50350;SDS011;36250;48.740;22.174;2023-02-21T06:25:59;50.83;;;33.75;;
50350;SDS011;36250;48.740;22.174;2023-02-21T06:28:28;48.47;;;32.83;;
50350;SDS011;36250;48.740;22.174;2023-02-21T06:30:54;46.92;;;33.95;;
50350;SDS011;36250;48.740;22.174;2023-02-21T06:33:20;41.15;;;30.15;;
50350;SDS011;36250;48.740;22.174;2023-02-21T06:35:45;40.15;;;27.75;;
50350;SDS011;36250;48.740;22.174;2023-02-21T06:38:11;39.13;;;24.75;;
50350;SDS011;36250;48.740;22.174;2023-02-21T06:40:36;59.15;;;35.17;;
50350;SDS011;36250;48.740;22.174;2023-02-21T06:43:01;52.47;;;31.13;;
50350;SDS011;36250;48.740;22.174;2023-02-21T06:45:27;48.05;;;31.00;;
50350;SDS011;36250;48.740;22.174;2023-02-21T06:47:52;51.58;;;32.67;;
50350;SDS011;36250;48.740;22.174;2023-02-21T06:50:18;80.97;;;45.83;;
50350;SDS011;36250;48.740;22.174;2023-02-21T06:52:43;147.23;;;78.50;;
50350;SDS011;36250;48.740;22.174;2023-02-21T06:55:08;116.38;;;65.13;;
50350;SDS011;36250;48.740;22.174;2023-02-21T06:57:34;132.35;;;74.57;;
50350;SDS011;36250;48.740;22.174;2023-02-21T06:59:59;102.97;;;57.58;;
50350;SDS011;36250;48.740;22.174;2023-02-21T07:02:24;79.25;;;47.85;;
50350;SDS011;36250;48.740;22.174;2023-02-21T07:04:50;56.63;;;35.10;;
50350;SDS011;36250;48.740;22.174;2023-02-21T07:07:15;41.67;;;23.48;;
50350;SDS011;36250;48.740;22.174;2023-02-21T07:09:40;42.55;;;22.58;;
50350;SDS011;36250;48.740;22.174;2023-02-21T07:12:06;30.27;;;19.92;;
50350;SDS011;36250;48.740;22.174;2023-02-21T07:14:32;26.00;;;17.33;;
50350;SDS011;36250;48.740;22.174;2023-02-21T07:16:58;29.95;;;17.58;;
50350;SDS011;36250;48.740;22.174;2023-02-21T07:19:23;28.85;;;18.25;;
50350;SDS011;36250;48.740;22.174;2023-02-21T07:21:49;28.08;;;19.02;;
50350;SDS011;36250;48.740;22.174;2023-02-21T07:24:14;29.08;;;19.25;;
50350;SDS011;36250;48.740;22.174;2023-02-21T07:26:39;26.73;;;17.77;;
50350;SDS011;36250;48.740;22.174;2023-02-21T07:29:05;24.83;;;17.25;;
50350;SDS011;36250;48.740;22.174;2023-02-21T07:31:31;26.42;;;17.83;;
50350;SDS011;36250;48.740;22.174;2023-02-21T07:33:57;24.83;;;18.02;;
50350;SDS011;36250;48.740;22.174;2023-02-21T07:36:23;32.78;;;21.95;;
50350;SDS011;36250;48.740;22.174;2023-02-21T07:38:48;41.53;;;25.15;;
50350;SDS011;36250;48.740;22.174;2023-02-21T07:41:14;41.08;;;25.95;;
50350;SDS011;36250;48.740;22.174;2023-02-21T07:43:40;33.28;;;21.90;;
50350;SDS011;36250;48.740;22.174;2023-02-21T07:46:10;33.75;;;22.13;;
50350;SDS011;36250;48.740;22.174;2023-02-21T07:48:36;27.40;;;19.17;;
50350;SDS011;36250;48.740;22.174;2023-02-21T07:51:01;38.38;;;22.95;;
50350;SDS011;36250;48.740;22.174;2023-02-21T07:53:27;39.65;;;25.38;;
50350;SDS011;36250;48.740;22.174;2023-02-21T07:55:52;44.58;;;29.45;;
50350;SDS011;36250;48.740;22.174;2023-02-21T07:58:17;48.35;;;29.08;;
50350;SDS011;36250;48.740;22.174;2023-02-21T08:00:43;47.63;;;29.23;;
50350;SDS011;36250;48.740;22.174;2023-02-21T08:03:11;48.95;;;28.90;;
50350;SDS011;36250;48.740;22.174;2023-02-21T08:05:37;34.38;;;25.23;;
50350;SDS011;36250;48.740;22.174;2023-02-21T08:08:02;28.33;;;20.70;;
50350;SDS011;36250;48.740;22.174;2023-02-21T08:10:32;27.90;;;19.45;;
50350;SDS011;36250;48.740;22.174;2023-02-21T08:12:57;30.40;;;18.92;;
50350;SDS011;36250;48.740;22.174;2023-02-21T08:15:22;27.88;;;18.75;;
50350;SDS011;36250;48.740;22.174;2023-02-21T08:17:48;26.35;;;18.42;;
50350;SDS011;36250;48.740;22.174;2023-02-21T08:20:13;26.60;;;17.70;;
50350;SDS011;36250;48.740;22.174;2023-02-21T08:22:39;30.42;;;18.58;;
50350;SDS011;36250;48.740;22.174;2023-02-21T08:25:04;30.60;;;18.75;;
50350;SDS011;36250;48.740;22.174;2023-02-21T08:27:30;24.63;;;17.33;;
50350;SDS011;36250;48.740;22.174;2023-02-21T08:29:55;29.75;;;18.73;;
50350;SDS011;36250;48.740;22.174;2023-02-21T08:32:21;29.73;;;19.73;;
50350;SDS011;36250;48.740;22.174;2023-02-21T08:34:47;29.70;;;20.42;;
50350;SDS011;36250;48.740;22.174;2023-02-21T08:37:13;28.60;;;18.50;;
50350;SDS011;36250;48.740;22.174;2023-02-21T08:39:45;22.02;;;15.95;;
50350;SDS011;36250;48.740;22.174;2023-02-21T08:42:11;28.85;;;18.20;;
50350;SDS011;36250;48.740;22.174;2023-02-21T08:44:37;29.10;;;20.25;;
50350;SDS011;36250;48.740;22.174;2023-02-21T08:47:03;26.15;;;15.27;;
50350;SDS011;36250;48.740;22.174;2023-02-21T08:49:28;20.33;;;13.20;;
50350;SDS011;36250;48.740;22.174;2023-02-21T08:51:53;19.92;;;12.90;;
50350;SDS011;36250;48.740;22.174;2023-02-21T08:54:19;24.15;;;14.35;;
50350;SDS011;36250;48.740;22.174;2023-02-21T08:56:44;20.58;;;15.38;;
50350;SDS011;36250;48.740;22.174;2023-02-21T08:59:10;18.35;;;13.15;;
50350;SDS011;36250;48.740;22.174;2023-02-21T09:01:35;20.13;;;14.63;;
50350;SDS011;36250;48.740;22.174;2023-02-21T09:04:01;22.48;;;15.80;;
50350;SDS011;36250;48.740;22.174;2023-02-21T09:06:28;23.83;;;15.60;;
50350;SDS011;36250;48.740;22.174;2023-02-21T09:08:53;18.05;;;13.45;;
50350;SDS011;36250;48.740;22.174;2023-02-21T09:11:19;23.48;;;16.00;;
50350;SDS011;36250;48.740;22.174;2023-02-21T09:13:44;20.40;;;14.52;;
50350;SDS011;36250;48.740;22.174;2023-02-21T09:16:09;20.38;;;13.82;;
50350;SDS011;36250;48.740;22.174;2023-02-21T09:18:35;26.42;;;15.25;;
50350;SDS011;36250;48.740;22.174;2023-02-21T09:21:00;19.73;;;14.43;;
50350;SDS011;36250;48.740;22.174;2023-02-21T09:23:26;22.52;;;14.75;;
50350;SDS011;36250;48.740;22.174;2023-02-21T09:25:53;26.52;;;14.95;;
50350;SDS011;36250;48.740;22.174;2023-02-21T09:28:19;17.85;;;14.25;;
50350;SDS011;36250;48.740;22.174;2023-02-21T09:30:45;23.58;;;15.18;;
50350;SDS011;36250;48.740;22.174;2023-02-21T09:33:12;23.33;;;14.90;;
50350;SDS011;36250;48.740;22.174;2023-02-21T09:35:38;23.88;;;17.30;;
50350;SDS011;36250;48.740;22.174;2023-02-21T09:38:04;22.27;;;16.25;;
50350;SDS011;36250;48.740;22.174;2023-02-21T09:43:14;24.20;;;16.25;;
50350;SDS011;36250;48.740;22.174;2023-02-21T09:45:45;24.13;;;14.50;;
50350;SDS011;36250;48.740;22.174;2023-02-21T09:48:15;22.52;;;14.13;;
50350;SDS011;36250;48.740;22.174;2023-02-21T09:50:46;20.70;;;13.50;;
50350;SDS011;36250;48.740;22.174;2023-02-21T09:53:15;27.10;;;13.75;;
50350;SDS011;36250;48.740;22.174;2023-02-21T09:55:45;18.37;;;13.63;;
50350;SDS011;36250;48.740;22.174;2023-02-21T09:58:14;20.25;;;14.73;;
50350;SDS011;36250;48.740;22.174;2023-02-21T10:00:41;21.92;;;14.82;;
50350;SDS011;36250;48.740;22.174;2023-02-21T10:05:45;23.98;;;13.75;;
50350;SDS011;36250;48.740;22.174;2023-02-21T10:08:29;23.87;;;12.70;;
50350;SDS011;36250;48.740;22.174;2023-02-21T10:17:04;15.85;;;10.63;;
50350;SDS011;36250;48.740;22.174;2023-02-21T10:19:43;17.45;;;10.68;;
50350;SDS011;36250;48.740;22.174;2023-02-21T10:22:13;18.83;;;10.30;;
50350;SDS011;36250;48.740;22.174;2023-02-21T10:24:44;16.45;;;10.30;;
50350;SDS011;36250;48.740;22.174;2023-02-21T10:27:20;13.55;;;9.52;;
50350;SDS011;36250;48.740;22.174;2023-02-21T10:32:25;11.88;;;8.60;;
50350;SDS011;36250;48.740;22.174;2023-02-21T10:34:51;15.00;;;9.02;;
50350;SDS011;36250;48.740;22.174;2023-02-21T10:37:27;9.48;;;7.82;;
50350;SDS011;36250;48.740;22.174;2023-02-21T10:40:05;8.27;;;6.93;;
50350;SDS011;36250;48.740;22.174;2023-02-21T10:42:48;11.57;;;8.55;;
50350;SDS011;36250;48.740;22.174;2023-02-21T10:45:18;11.23;;;8.18;;
50350;SDS011;36250;48.740;22.174;2023-02-21T10:50:38;12.90;;;9.05;;
50350;SDS011;36250;48.740;22.174;2023-02-21T10:53:08;10.82;;;8.65;;
50350;SDS011;36250;48.740;22.174;2023-02-21T10:55:49;12.00;;;8.05;;
50350;SDS011;36250;48.740;22.174;2023-02-21T10:58:31;18.23;;;8.93;;
50350;SDS011;36250;48.740;22.174;2023-02-21T11:00:57;13.40;;;8.50;;
50350;SDS011;36250;48.740;22.174;2023-02-21T11:03:36;16.05;;;9.77;;
50350;SDS011;36250;48.740;22.174;2023-02-21T11:06:08;14.73;;;9.80;;
50350;SDS011;36250;48.740;22.174;2023-02-21T11:08:43;16.55;;;9.88;;
50350;SDS011;36250;48.740;22.174;2023-02-21T11:11:09;19.02;;;11.27;;
50350;SDS011;36250;48.740;22.174;2023-02-21T11:13:35;14.25;;;8.68;;
50350;SDS011;36250;48.740;22.174;2023-02-21T11:16:17;10.80;;;8.10;;
50350;SDS011;36250;48.740;22.174;2023-02-21T11:18:44;11.45;;;9.05;;
50350;SDS011;36250;48.740;22.174;2023-02-21T11:21:16;10.40;;;8.40;;
50350;SDS011;36250;48.740;22.174;2023-02-21T11:23:47;10.32;;;8.07;;
50350;SDS011;36250;48.740;22.174;2023-02-21T11:26:23;13.32;;;8.73;;
50350;SDS011;36250;48.740;22.174;2023-02-21T11:28:48;11.05;;;7.45;;
50350;SDS011;36250;48.740;22.174;2023-02-21T11:31:26;10.95;;;7.47;;
50350;SDS011;36250;48.740;22.174;2023-02-21T11:34:01;10.57;;;7.15;;
50350;SDS011;36250;48.740;22.174;2023-02-21T11:36:30;8.85;;;7.13;;
50350;SDS011;36250;48.740;22.174;2023-02-21T11:41:49;13.98;;;7.65;;
50350;SDS011;36250;48.740;22.174;2023-02-21T11:49:47;10.52;;;7.03;;
50350;SDS011;36250;48.740;22.174;2023-02-21T11:52:53;12.30;;;7.00;;
50350;SDS011;36250;48.740;22.174;2023-02-21T11:55:16;57.67;;;10.95;;
50350;SDS011;36250;48.740;22.174;2023-02-21T12:17:16;10.57;;;7.32;;
50350;SDS011;36250;48.740;22.174;2023-02-21T12:36:53;9.85;;;7.13;;
50350;SDS011;36250;48.740;22.174;2023-02-21T12:40:20;16.00;;;8.90;;
50350;SDS011;36250;48.740;22.174;2023-02-21T12:42:48;6.45;;;4.60;;
50350;SDS011;36250;48.740;22.174;2023-02-21T12:51:07;9.18;;;6.88;;
50350;SDS011;36250;48.740;22.174;2023-02-21T12:58:58;6.13;;;2.97;;
50350;SDS011;36250;48.740;22.174;2023-02-21T13:01:29;4.30;;;3.67;;
50350;SDS011;36250;48.740;22.174;2023-02-21T13:07:09;6.45;;;4.38;;
50350;SDS011;36250;48.740;22.174;2023-02-21T13:09:52;5.47;;;4.85;;
50350;SDS011;36250;48.740;22.174;2023-02-21T13:12:24;8.38;;;5.85;;
50350;SDS011;36250;48.740;22.174;2023-02-21T13:14:59;11.63;;;6.07;;
50350;SDS011;36250;48.740;22.174;2023-02-21T13:17:37;8.93;;;4.90;;
50350;SDS011;36250;48.740;22.174;2023-02-21T13:28:39;6.75;;;5.25;;
50350;SDS011;36250;48.740;22.174;2023-02-21T13:31:09;5.68;;;3.28;;
50350;SDS011;36250;48.740;22.174;2023-02-21T13:33:44;6.88;;;6.15;;
50350;SDS011;36250;48.740;22.174;2023-02-21T13:39:02;4.13;;;2.35;;
50350;SDS011;36250;48.740;22.174;2023-02-21T13:41:33;3.25;;;3.05;;
50350;SDS011;36250;48.740;22.174;2023-02-21T13:44:04;3.60;;;2.92;;
50350;SDS011;36250;48.740;22.174;2023-02-21T13:57:34;1.60;;;0.98;;
50350;SDS011;36250;48.740;22.174;2023-02-21T14:08:29;7.43;;;4.35;;
50350;SDS011;36250;48.740;22.174;2023-02-21T14:13:26;9.30;;;6.82;;
50350;SDS011;36250;48.740;22.174;2023-02-21T14:16:15;11.17;;;7.40;;
50350;SDS011;36250;48.740;22.174;2023-02-21T14:18:59;3.20;;;2.50;;
50350;SDS011;36250;48.740;22.174;2023-02-21T14:21:34;2.63;;;1.38;;
50350;SDS011;36250;48.740;22.174;2023-02-21T14:24:00;3.63;;;1.95;;
50350;SDS011;36250;48.740;22.174;2023-02-21T14:37:12;1.58;;;1.45;;
50350;SDS011;36250;48.740;22.174;2023-02-21T14:39:55;0.73;;;0.52;;
50350;SDS011;36250;48.740;22.174;2023-02-21T14:55:48;1.75;;;1.23;;
50350;SDS011;36250;48.740;22.174;2023-02-21T15:01:48;2.70;;;1.30;;
50350;SDS011;36250;48.740;22.174;2023-02-21T15:04:30;2.47;;;2.10;;
50350;SDS011;36250;48.740;22.174;2023-02-21T15:07:11;6.30;;;2.92;;
50350;SDS011;36250;48.740;22.174;2023-02-21T15:09:40;4.15;;;3.47;;
50350;SDS011;36250;48.740;22.174;2023-02-21T15:12:07;4.30;;;3.25;;
50350;SDS011;36250;48.740;22.174;2023-02-21T15:14:38;4.57;;;3.72;;
50350;SDS011;36250;48.740;22.174;2023-02-21T15:17:18;5.57;;;3.78;;
50350;SDS011;36250;48.740;22.174;2023-02-21T15:19:46;6.50;;;4.28;;
50350;SDS011;36250;48.740;22.174;2023-02-21T15:22:25;6.05;;;4.10;;
50350;SDS011;36250;48.740;22.174;2023-02-21T15:24:58;4.38;;;2.42;;
50350;SDS011;36250;48.740;22.174;2023-02-21T15:27:24;2.83;;;2.53;;
50350;SDS011;36250;48.740;22.174;2023-02-21T15:35:35;7.68;;;5.55;;
50350;SDS011;36250;48.740;22.174;2023-02-21T15:38:10;6.72;;;4.57;;
50350;SDS011;36250;48.740;22.174;2023-02-21T15:40:40;5.32;;;3.72;;
50350;SDS011;36250;48.740;22.174;2023-02-21T15:43:07;4.40;;;4.00;;
50350;SDS011;36250;48.740;22.174;2023-02-21T15:45:53;5.45;;;3.83;;
50350;SDS011;36250;48.740;22.174;2023-02-21T15:48:23;4.32;;;3.42;;
50350;SDS011;36250;48.740;22.174;2023-02-21T15:50:49;5.03;;;3.80;;
50350;SDS011;36250;48.740;22.174;2023-02-21T15:53:24;17.25;;;9.25;;
50350;SDS011;36250;48.740;22.174;2023-02-21T15:55:52;4.82;;;3.28;;
50350;SDS011;36250;48.740;22.174;2023-02-21T16:00:49;6.05;;;4.10;;
50350;SDS011;36250;48.740;22.174;2023-02-21T16:03:37;25.83;;;16.30;;
50350;SDS011;36250;48.740;22.174;2023-02-21T16:11:42;9.52;;;6.20;;
50350;SDS011;36250;48.740;22.174;2023-02-21T16:14:15;2.28;;;1.75;;
50350;SDS011;36250;48.740;22.174;2023-02-21T16:16:42;5.03;;;4.10;;
50350;SDS011;36250;48.740;22.174;2023-02-21T16:19:07;5.65;;;3.70;;
50350;SDS011;36250;48.740;22.174;2023-02-21T16:21:33;15.77;;;10.05;;
50350;SDS011;36250;48.740;22.174;2023-02-21T16:24:12;17.88;;;11.82;;
50350;SDS011;36250;48.740;22.174;2023-02-21T16:26:39;13.45;;;9.73;;
50350;SDS011;36250;48.740;22.174;2023-02-21T16:29:04;12.13;;;7.22;;
50350;SDS011;36250;48.740;22.174;2023-02-21T16:31:31;8.02;;;5.93;;
50350;SDS011;36250;48.740;22.174;2023-02-21T16:33:58;4.53;;;3.85;;
50350;SDS011;36250;48.740;22.174;2023-02-21T16:36:25;8.88;;;5.53;;
50350;SDS011;36250;48.740;22.174;2023-02-21T16:38:52;13.38;;;7.47;;
50350;SDS011;36250;48.740;22.174;2023-02-21T16:41:19;9.73;;;6.03;;
50350;SDS011;36250;48.740;22.174;2023-02-21T16:43:45;6.15;;;3.83;;
50350;SDS011;36250;48.740;22.174;2023-02-21T16:46:10;4.25;;;2.97;;
50350;SDS011;36250;48.740;22.174;2023-02-21T16:48:36;3.80;;;3.38;;
50350;SDS011;36250;48.740;22.174;2023-02-21T16:51:03;2.33;;;2.05;;
50350;SDS011;36250;48.740;22.174;2023-02-21T16:53:31;3.00;;;2.28;;
50350;SDS011;36250;48.740;22.174;2023-02-21T16:55:56;2.60;;;2.40;;
50350;SDS011;36250;48.740;22.174;2023-02-21T17:00:54;3.83;;;2.45;;
50350;SDS011;36250;48.740;22.174;2023-02-21T17:03:23;2.35;;;1.98;;
50350;SDS011;36250;48.740;22.174;2023-02-21T17:05:51;4.47;;;3.88;;
50350;SDS011;36250;48.740;22.174;2023-02-21T17:08:18;2.58;;;2.22;;
50350;SDS011;36250;48.740;22.174;2023-02-21T17:10:44;4.00;;;3.60;;
50350;SDS011;36250;48.740;22.174;2023-02-21T17:13:09;3.70;;;3.40;;
50350;SDS011;36250;48.740;22.174;2023-02-21T17:15:34;8.82;;;5.65;;
50350;SDS011;36250;48.740;22.174;2023-02-21T17:18:00;9.05;;;6.72;;
50350;SDS011;36250;48.740;22.174;2023-02-21T17:20:26;9.65;;;6.50;;
50350;SDS011;36250;48.740;22.174;2023-02-21T17:22:52;8.50;;;5.60;;
50350;SDS011;36250;48.740;22.174;2023-02-21T17:25:19;5.63;;;3.60;;
50350;SDS011;36250;48.740;22.174;2023-02-21T17:27:46;3.67;;;2.70;;
50350;SDS011;36250;48.740;22.174;2023-02-21T17:30:12;2.88;;;1.70;;
50350;SDS011;36250;48.740;22.174;2023-02-21T17:32:38;6.88;;;3.60;;
50350;SDS011;36250;48.740;22.174;2023-02-21T17:35:03;7.43;;;5.53;;
50350;SDS011;36250;48.740;22.174;2023-02-21T17:37:29;8.45;;;6.05;;
50350;SDS011;36250;48.740;22.174;2023-02-21T17:39:55;12.82;;;7.22;;